sensor_id;sensor_type;location;lat;lon;timestamp;P1;durP1;ratioP1;P2;durP2;ratioP2
58990;SDS011;44781;53.444;14.476;2023-07-30T00:01:04;8.10;;;4.20;;
58990;SDS011;44781;53.444;14.476;2023-07-30T00:03:49;7.90;;;4.10;;
58990;SDS011;44781;53.444;14.476;2023-07-30T00:06:16;8.20;;;4.90;;
58990;SDS011;44781;53.444;14.476;2023-07-30T00:08:43;10.40;;;4.60;;
58990;SDS011;44781;53.444;14.476;2023-07-30T00:11:10;8.30;;;3.90;;
58990;SDS011;44781;53.444;14.476;2023-07-30T00:13:37;8.30;;;4.10;;
58990;SDS011;44781;53.444;14.476;2023-07-30T00:16:04;9.20;;;4.20;;
58990;SDS011;44781;53.444;14.476;2023-07-30T00:18:32;9.10;;;4.20;;
58990;SDS011;44781;53.444;14.476;2023-07-30T00:20:59;7.10;;;4.20;;
58990;SDS011;44781;53.444;14.476;2023-07-30T00:23:26;7.80;;;4.60;;
58990;SDS011;44781;53.444;14.476;2023-07-30T00:25:53;7.80;;;4.30;;
58990;SDS011;44781;53.444;14.476;2023-07-30T00:28:20;9.20;;;4.50;;
58990;SDS011;44781;53.444;14.476;2023-07-30T00:30:50;9.00;;;4.60;;
58990;SDS011;44781;53.444;14.476;2023-07-30T00:33:18;8.10;;;4.90;;
58990;SDS011;44781;53.444;14.476;2023-07-30T00:35:45;8.80;;;4.30;;
58990;SDS011;44781;53.444;14.476;2023-07-30T00:38:12;8.70;;;5.50;;
58990;SDS011;44781;53.444;14.476;2023-07-30T00:40:42;9.80;;;5.80;;
58990;SDS011;44781;53.444;14.476;2023-07-30T00:43:36;8.40;;;4.80;;
58990;SDS011;44781;53.444;14.476;2023-07-30T00:46:12;7.20;;;4.60;;
58990;SDS011;44781;53.444;14.476;2023-07-30T00:48:56;8.40;;;5.10;;
58990;SDS011;44781;53.444;14.476;2023-07-30T00:51:31;8.80;;;5.60;;
58990;SDS011;44781;53.444;14.476;2023-07-30T00:54:11;8.40;;;5.90;;
58990;SDS011;44781;53.444;14.476;2023-07-30T00:56:59;8.30;;;5.30;;
58990;SDS011;44781;53.444;14.476;2023-07-30T00:59:28;9.30;;;5.90;;
58990;SDS011;44781;53.444;14.476;2023-07-30T01:01:59;9.80;;;5.50;;
58990;SDS011;44781;53.444;14.476;2023-07-30T01:04:45;9.00;;;5.40;;
58990;SDS011;44781;53.444;14.476;2023-07-30T01:07:23;8.60;;;5.10;;
58990;SDS011;44781;53.444;14.476;2023-07-30T01:09:56;11.60;;;5.70;;
58990;SDS011;44781;53.444;14.476;2023-07-30T01:12:23;8.00;;;5.40;;
58990;SDS011;44781;53.444;14.476;2023-07-30T01:14:51;10.40;;;7.80;;
58990;SDS011;44781;53.444;14.476;2023-07-30T01:17:22;12.00;;;7.30;;
58990;SDS011;44781;53.444;14.476;2023-07-30T01:19:53;9.70;;;6.00;;
58990;SDS011;44781;53.444;14.476;2023-07-30T01:22:22;10.40;;;6.70;;
58990;SDS011;44781;53.444;14.476;2023-07-30T01:24:50;7.60;;;5.20;;
58990;SDS011;44781;53.444;14.476;2023-07-30T01:27:31;12.20;;;5.90;;
58990;SDS011;44781;53.444;14.476;2023-07-30T01:30:15;10.10;;;5.40;;
58990;SDS011;44781;53.444;14.476;2023-07-30T01:32:45;9.30;;;6.40;;
58990;SDS011;44781;53.444;14.476;2023-07-30T01:35:16;11.50;;;8.00;;
58990;SDS011;44781;53.444;14.476;2023-07-30T01:37:47;10.50;;;8.50;;
58990;SDS011;44781;53.444;14.476;2023-07-30T01:40:14;9.60;;;8.00;;
58990;SDS011;44781;53.444;14.476;2023-07-30T01:42:42;13.70;;;10.00;;
58990;SDS011;44781;53.444;14.476;2023-07-30T01:45:09;13.40;;;9.50;;
58990;SDS011;44781;53.444;14.476;2023-07-30T01:47:37;12.00;;;7.80;;
58990;SDS011;44781;53.444;14.476;2023-07-30T01:50:04;11.90;;;8.30;;
58990;SDS011;44781;53.444;14.476;2023-07-30T01:52:32;14.00;;;9.40;;
58990;SDS011;44781;53.444;14.476;2023-07-30T01:54:59;13.10;;;8.60;;
58990;SDS011;44781;53.444;14.476;2023-07-30T01:57:27;11.40;;;7.40;;
58990;SDS011;44781;53.444;14.476;2023-07-30T01:59:54;10.10;;;8.20;;
58990;SDS011;44781;53.444;14.476;2023-07-30T02:02:21;11.30;;;8.80;;
58990;SDS011;44781;53.444;14.476;2023-07-30T02:04:48;11.30;;;7.90;;
58990;SDS011;44781;53.444;14.476;2023-07-30T02:07:16;12.80;;;7.70;;
58990;SDS011;44781;53.444;14.476;2023-07-30T02:09:43;9.90;;;7.60;;
58990;SDS011;44781;53.444;14.476;2023-07-30T02:12:11;9.50;;;6.80;;
58990;SDS011;44781;53.444;14.476;2023-07-30T02:14:38;9.60;;;6.50;;
58990;SDS011;44781;53.444;14.476;2023-07-30T02:17:05;11.50;;;6.60;;
58990;SDS011;44781;53.444;14.476;2023-07-30T02:19:32;9.90;;;7.40;;
58990;SDS011;44781;53.444;14.476;2023-07-30T02:21:59;11.90;;;7.40;;
58990;SDS011;44781;53.444;14.476;2023-07-30T02:24:32;9.50;;;7.00;;
58990;SDS011;44781;53.444;14.476;2023-07-30T02:26:59;9.70;;;7.00;;
58990;SDS011;44781;53.444;14.476;2023-07-30T02:29:27;11.20;;;7.10;;
58990;SDS011;44781;53.444;14.476;2023-07-30T02:31:55;9.30;;;6.30;;
58990;SDS011;44781;53.444;14.476;2023-07-30T02:34:21;9.70;;;5.30;;
58990;SDS011;44781;53.444;14.476;2023-07-30T02:36:49;9.10;;;6.30;;
58990;SDS011;44781;53.444;14.476;2023-07-30T02:39:15;9.60;;;6.50;;
58990;SDS011;44781;53.444;14.476;2023-07-30T02:41:42;10.20;;;6.30;;
58990;SDS011;44781;53.444;14.476;2023-07-30T02:44:13;9.50;;;6.20;;
58990;SDS011;44781;53.444;14.476;2023-07-30T02:46:41;8.20;;;5.80;;
58990;SDS011;44781;53.444;14.476;2023-07-30T02:49:07;9.60;;;6.30;;
58990;SDS011;44781;53.444;14.476;2023-07-30T02:51:35;8.80;;;6.30;;
58990;SDS011;44781;53.444;14.476;2023-07-30T02:54:05;9.70;;;6.50;;
58990;SDS011;44781;53.444;14.476;2023-07-30T02:56:34;9.00;;;6.50;;
58990;SDS011;44781;53.444;14.476;2023-07-30T02:59:01;10.00;;;6.30;;
58990;SDS011;44781;53.444;14.476;2023-07-30T03:01:28;9.90;;;5.60;;
58990;SDS011;44781;53.444;14.476;2023-07-30T03:03:55;9.90;;;6.10;;
58990;SDS011;44781;53.444;14.476;2023-07-30T03:06:22;11.90;;;5.50;;
58990;SDS011;44781;53.444;14.476;2023-07-30T03:08:50;7.50;;;5.30;;
58990;SDS011;44781;53.444;14.476;2023-07-30T03:11:17;9.30;;;6.10;;
58990;SDS011;44781;53.444;14.476;2023-07-30T03:13:44;7.70;;;5.30;;
58990;SDS011;44781;53.444;14.476;2023-07-30T03:16:14;10.60;;;5.50;;
58990;SDS011;44781;53.444;14.476;2023-07-30T03:18:41;12.10;;;5.60;;
58990;SDS011;44781;53.444;14.476;2023-07-30T03:21:10;8.90;;;6.30;;
58990;SDS011;44781;53.444;14.476;2023-07-30T03:23:39;8.60;;;5.70;;
58990;SDS011;44781;53.444;14.476;2023-07-30T03:26:10;8.90;;;5.50;;
58990;SDS011;44781;53.444;14.476;2023-07-30T03:28:38;8.30;;;5.60;;
58990;SDS011;44781;53.444;14.476;2023-07-30T03:31:05;9.60;;;6.00;;
58990;SDS011;44781;53.444;14.476;2023-07-30T03:33:32;9.10;;;5.90;;
58990;SDS011;44781;53.444;14.476;2023-07-30T03:36:00;7.10;;;5.20;;
58990;SDS011;44781;53.444;14.476;2023-07-30T03:38:27;9.20;;;5.30;;
58990;SDS011;44781;53.444;14.476;2023-07-30T03:40:54;8.30;;;5.40;;
58990;SDS011;44781;53.444;14.476;2023-07-30T03:43:21;7.20;;;4.90;;
58990;SDS011;44781;53.444;14.476;2023-07-30T03:45:48;10.20;;;5.30;;
58990;SDS011;44781;53.444;14.476;2023-07-30T03:48:16;7.50;;;5.20;;
58990;SDS011;44781;53.444;14.476;2023-07-30T03:50:43;8.80;;;6.00;;
58990;SDS011;44781;53.444;14.476;2023-07-30T03:53:10;9.50;;;7.00;;
58990;SDS011;44781;53.444;14.476;2023-07-30T03:55:38;10.10;;;8.20;;
58990;SDS011;44781;53.444;14.476;2023-07-30T03:58:06;10.90;;;8.30;;
58990;SDS011;44781;53.444;14.476;2023-07-30T04:00:34;9.80;;;6.90;;
58990;SDS011;44781;53.444;14.476;2023-07-30T04:03:03;9.80;;;7.20;;
58990;SDS011;44781;53.444;14.476;2023-07-30T04:05:32;9.00;;;6.00;;
58990;SDS011;44781;53.444;14.476;2023-07-30T04:08:00;9.90;;;6.50;;
58990;SDS011;44781;53.444;14.476;2023-07-30T04:10:28;9.90;;;7.20;;
58990;SDS011;44781;53.444;14.476;2023-07-30T04:12:56;9.40;;;6.50;;
58990;SDS011;44781;53.444;14.476;2023-07-30T04:15:23;10.60;;;6.50;;
58990;SDS011;44781;53.444;14.476;2023-07-30T04:17:50;8.30;;;5.80;;
58990;SDS011;44781;53.444;14.476;2023-07-30T04:20:17;9.70;;;5.80;;
58990;SDS011;44781;53.444;14.476;2023-07-30T04:22:44;7.90;;;5.50;;
58990;SDS011;44781;53.444;14.476;2023-07-30T04:25:12;9.10;;;6.80;;
58990;SDS011;44781;53.444;14.476;2023-07-30T04:27:39;13.70;;;6.50;;
58990;SDS011;44781;53.444;14.476;2023-07-30T04:30:07;8.60;;;6.20;;
58990;SDS011;44781;53.444;14.476;2023-07-30T04:32:34;8.60;;;6.10;;
58990;SDS011;44781;53.444;14.476;2023-07-30T04:35:01;8.70;;;6.00;;
58990;SDS011;44781;53.444;14.476;2023-07-30T04:37:32;9.60;;;5.70;;
58990;SDS011;44781;53.444;14.476;2023-07-30T04:39:59;7.70;;;5.80;;
58990;SDS011;44781;53.444;14.476;2023-07-30T04:42:29;8.50;;;5.70;;
58990;SDS011;44781;53.444;14.476;2023-07-30T04:44:56;9.40;;;5.60;;
58990;SDS011;44781;53.444;14.476;2023-07-30T04:47:24;8.40;;;5.20;;
58990;SDS011;44781;53.444;14.476;2023-07-30T04:49:51;7.20;;;4.80;;
58990;SDS011;44781;53.444;14.476;2023-07-30T04:52:19;7.90;;;4.90;;
58990;SDS011;44781;53.444;14.476;2023-07-30T04:54:46;7.50;;;4.40;;
58990;SDS011;44781;53.444;14.476;2023-07-30T04:57:13;7.90;;;4.50;;
58990;SDS011;44781;53.444;14.476;2023-07-30T04:59:41;7.80;;;4.80;;
58990;SDS011;44781;53.444;14.476;2023-07-30T05:02:08;7.60;;;4.00;;
58990;SDS011;44781;53.444;14.476;2023-07-30T05:04:35;9.30;;;3.90;;
58990;SDS011;44781;53.444;14.476;2023-07-30T05:07:02;6.10;;;3.90;;
58990;SDS011;44781;53.444;14.476;2023-07-30T05:09:30;5.90;;;3.70;;
58990;SDS011;44781;53.444;14.476;2023-07-30T05:11:59;7.10;;;4.00;;
58990;SDS011;44781;53.444;14.476;2023-07-30T05:14:26;8.40;;;3.70;;
58990;SDS011;44781;53.444;14.476;2023-07-30T05:16:54;6.50;;;4.10;;
58990;SDS011;44781;53.444;14.476;2023-07-30T05:19:21;8.50;;;3.90;;
58990;SDS011;44781;53.444;14.476;2023-07-30T05:21:48;6.40;;;3.80;;
58990;SDS011;44781;53.444;14.476;2023-07-30T05:24:24;6.70;;;3.90;;
58990;SDS011;44781;53.444;14.476;2023-07-30T05:26:51;8.90;;;4.00;;
58990;SDS011;44781;53.444;14.476;2023-07-30T05:29:19;6.80;;;3.80;;
58990;SDS011;44781;53.444;14.476;2023-07-30T05:31:46;8.10;;;4.00;;
58990;SDS011;44781;53.444;14.476;2023-07-30T05:34:13;7.30;;;3.70;;
58990;SDS011;44781;53.444;14.476;2023-07-30T05:36:40;6.30;;;3.70;;
58990;SDS011;44781;53.444;14.476;2023-07-30T05:39:07;7.70;;;3.60;;
58990;SDS011;44781;53.444;14.476;2023-07-30T05:41:35;8.40;;;3.70;;
58990;SDS011;44781;53.444;14.476;2023-07-30T05:44:02;6.70;;;3.20;;
58990;SDS011;44781;53.444;14.476;2023-07-30T05:46:29;6.70;;;3.10;;
58990;SDS011;44781;53.444;14.476;2023-07-30T05:48:56;6.70;;;3.30;;
58990;SDS011;44781;53.444;14.476;2023-07-30T05:51:23;7.90;;;3.10;;
58990;SDS011;44781;53.444;14.476;2023-07-30T05:53:50;7.80;;;3.60;;
58990;SDS011;44781;53.444;14.476;2023-07-30T05:56:18;6.80;;;3.50;;
58990;SDS011;44781;53.444;14.476;2023-07-30T05:58:46;6.30;;;3.50;;
58990;SDS011;44781;53.444;14.476;2023-07-30T06:01:13;7.00;;;3.60;;
58990;SDS011;44781;53.444;14.476;2023-07-30T06:03:41;6.40;;;3.40;;
58990;SDS011;44781;53.444;14.476;2023-07-30T06:06:09;6.70;;;3.50;;
58990;SDS011;44781;53.444;14.476;2023-07-30T06:08:37;6.00;;;3.50;;
58990;SDS011;44781;53.444;14.476;2023-07-30T06:11:04;7.40;;;3.60;;
58990;SDS011;44781;53.444;14.476;2023-07-30T06:13:34;8.80;;;3.60;;
58990;SDS011;44781;53.444;14.476;2023-07-30T06:16:01;7.70;;;3.70;;
58990;SDS011;44781;53.444;14.476;2023-07-30T06:18:28;8.20;;;3.50;;
58990;SDS011;44781;53.444;14.476;2023-07-30T06:20:55;5.60;;;3.30;;
58990;SDS011;44781;53.444;14.476;2023-07-30T06:23:23;5.70;;;2.90;;
58990;SDS011;44781;53.444;14.476;2023-07-30T06:25:50;8.10;;;3.40;;
58990;SDS011;44781;53.444;14.476;2023-07-30T06:28:17;5.20;;;3.20;;
58990;SDS011;44781;53.444;14.476;2023-07-30T06:30:44;6.30;;;3.20;;
58990;SDS011;44781;53.444;14.476;2023-07-30T06:33:11;5.80;;;3.30;;
58990;SDS011;44781;53.444;14.476;2023-07-30T06:35:38;4.70;;;2.60;;
58990;SDS011;44781;53.444;14.476;2023-07-30T06:38:08;5.40;;;2.90;;
58990;SDS011;44781;53.444;14.476;2023-07-30T06:40:35;7.40;;;3.00;;
58990;SDS011;44781;53.444;14.476;2023-07-30T06:43:02;7.80;;;2.80;;
58990;SDS011;44781;53.444;14.476;2023-07-30T06:45:29;4.60;;;2.20;;
58990;SDS011;44781;53.444;14.476;2023-07-30T06:47:57;6.20;;;2.60;;
58990;SDS011;44781;53.444;14.476;2023-07-30T06:50:24;5.20;;;2.40;;
58990;SDS011;44781;53.444;14.476;2023-07-30T06:52:51;4.60;;;2.30;;
58990;SDS011;44781;53.444;14.476;2023-07-30T06:55:19;6.10;;;2.40;;
58990;SDS011;44781;53.444;14.476;2023-07-30T06:57:47;4.30;;;2.20;;
58990;SDS011;44781;53.444;14.476;2023-07-30T07:00:14;4.60;;;2.10;;
58990;SDS011;44781;53.444;14.476;2023-07-30T07:02:48;5.60;;;2.20;;
58990;SDS011;44781;53.444;14.476;2023-07-30T07:05:15;5.90;;;2.20;;
58990;SDS011;44781;53.444;14.476;2023-07-30T07:07:42;4.20;;;1.90;;
58990;SDS011;44781;53.444;14.476;2023-07-30T07:10:09;4.30;;;2.00;;
58990;SDS011;44781;53.444;14.476;2023-07-30T07:12:40;4.50;;;2.00;;
58990;SDS011;44781;53.444;14.476;2023-07-30T07:15:07;4.90;;;2.10;;
58990;SDS011;44781;53.444;14.476;2023-07-30T07:17:35;3.60;;;1.90;;
58990;SDS011;44781;53.444;14.476;2023-07-30T07:20:02;4.70;;;2.20;;
58990;SDS011;44781;53.444;14.476;2023-07-30T07:22:33;4.40;;;1.90;;
58990;SDS011;44781;53.444;14.476;2023-07-30T07:25:00;6.80;;;2.20;;
58990;SDS011;44781;53.444;14.476;2023-07-30T07:27:27;5.20;;;2.10;;
58990;SDS011;44781;53.444;14.476;2023-07-30T07:29:55;5.20;;;2.20;;
58990;SDS011;44781;53.444;14.476;2023-07-30T07:32:22;5.20;;;2.10;;
58990;SDS011;44781;53.444;14.476;2023-07-30T07:34:50;5.10;;;2.00;;
58990;SDS011;44781;53.444;14.476;2023-07-30T07:37:18;3.80;;;1.70;;
58990;SDS011;44781;53.444;14.476;2023-07-30T07:39:45;7.60;;;2.10;;
58990;SDS011;44781;53.444;14.476;2023-07-30T07:42:13;4.00;;;1.80;;
58990;SDS011;44781;53.444;14.476;2023-07-30T07:44:40;5.00;;;1.50;;
58990;SDS011;44781;53.444;14.476;2023-07-30T07:47:08;5.70;;;2.00;;
58990;SDS011;44781;53.444;14.476;2023-07-30T07:49:35;3.60;;;1.40;;
58990;SDS011;44781;53.444;14.476;2023-07-30T07:52:02;4.50;;;1.60;;
58990;SDS011;44781;53.444;14.476;2023-07-30T07:54:33;5.80;;;2.20;;
58990;SDS011;44781;53.444;14.476;2023-07-30T07:57:02;4.10;;;1.90;;
58990;SDS011;44781;53.444;14.476;2023-07-30T07:59:29;5.40;;;2.10;;
58990;SDS011;44781;53.444;14.476;2023-07-30T08:01:56;4.70;;;1.90;;
58990;SDS011;44781;53.444;14.476;2023-07-30T08:04:23;4.60;;;1.60;;
58990;SDS011;44781;53.444;14.476;2023-07-30T08:06:50;5.00;;;1.80;;
58990;SDS011;44781;53.444;14.476;2023-07-30T08:09:17;3.10;;;1.30;;
58990;SDS011;44781;53.444;14.476;2023-07-30T08:11:46;4.00;;;1.90;;
58990;SDS011;44781;53.444;14.476;2023-07-30T08:14:13;4.40;;;1.60;;
58990;SDS011;44781;53.444;14.476;2023-07-30T08:16:40;4.60;;;1.50;;
58990;SDS011;44781;53.444;14.476;2023-07-30T08:19:07;2.10;;;1.40;;
58990;SDS011;44781;53.444;14.476;2023-07-30T08:21:34;4.20;;;1.60;;
58990;SDS011;44781;53.444;14.476;2023-07-30T08:24:09;4.60;;;1.70;;
58990;SDS011;44781;53.444;14.476;2023-07-30T08:26:38;2.60;;;1.30;;
58990;SDS011;44781;53.444;14.476;2023-07-30T08:29:05;3.20;;;1.50;;
58990;SDS011;44781;53.444;14.476;2023-07-30T08:31:32;3.10;;;1.50;;
58990;SDS011;44781;53.444;14.476;2023-07-30T08:34:00;4.40;;;1.60;;
58990;SDS011;44781;53.444;14.476;2023-07-30T08:36:29;4.20;;;1.80;;
58990;SDS011;44781;53.444;14.476;2023-07-30T08:38:57;3.60;;;1.80;;
58990;SDS011;44781;53.444;14.476;2023-07-30T08:41:24;3.20;;;1.30;;
58990;SDS011;44781;53.444;14.476;2023-07-30T08:43:52;2.70;;;1.40;;
58990;SDS011;44781;53.444;14.476;2023-07-30T08:46:19;4.00;;;1.80;;
58990;SDS011;44781;53.444;14.476;2023-07-30T08:48:46;3.10;;;1.60;;
58990;SDS011;44781;53.444;14.476;2023-07-30T08:51:13;3.70;;;1.80;;
58990;SDS011;44781;53.444;14.476;2023-07-30T08:53:41;3.30;;;1.60;;
58990;SDS011;44781;53.444;14.476;2023-07-30T08:56:09;2.60;;;1.40;;
58990;SDS011;44781;53.444;14.476;2023-07-30T08:58:37;3.60;;;1.50;;
58990;SDS011;44781;53.444;14.476;2023-07-30T09:01:11;4.90;;;1.70;;
58990;SDS011;44781;53.444;14.476;2023-07-30T09:03:42;2.60;;;1.40;;
58990;SDS011;44781;53.444;14.476;2023-07-30T09:06:12;3.70;;;1.60;;
58990;SDS011;44781;53.444;14.476;2023-07-30T09:08:42;2.20;;;1.30;;
58990;SDS011;44781;53.444;14.476;2023-07-30T09:11:10;5.50;;;2.10;;
58990;SDS011;44781;53.444;14.476;2023-07-30T09:13:38;2.80;;;1.40;;
58990;SDS011;44781;53.444;14.476;2023-07-30T09:16:09;3.20;;;1.60;;
58990;SDS011;44781;53.444;14.476;2023-07-30T09:18:41;3.20;;;1.90;;
58990;SDS011;44781;53.444;14.476;2023-07-30T09:21:10;3.40;;;1.90;;
58990;SDS011;44781;53.444;14.476;2023-07-30T09:23:41;3.20;;;2.10;;
58990;SDS011;44781;53.444;14.476;2023-07-30T09:26:10;4.40;;;2.50;;
58990;SDS011;44781;53.444;14.476;2023-07-30T09:28:39;5.20;;;2.30;;
58990;SDS011;44781;53.444;14.476;2023-07-30T09:31:07;3.70;;;2.40;;
58990;SDS011;44781;53.444;14.476;2023-07-30T09:33:39;4.10;;;2.50;;
58990;SDS011;44781;53.444;14.476;2023-07-30T09:36:08;5.60;;;3.10;;
58990;SDS011;44781;53.444;14.476;2023-07-30T09:38:39;4.80;;;3.00;;
58990;SDS011;44781;53.444;14.476;2023-07-30T09:41:08;3.40;;;2.60;;
58990;SDS011;44781;53.444;14.476;2023-07-30T09:43:37;4.70;;;2.80;;
58990;SDS011;44781;53.444;14.476;2023-07-30T09:46:05;4.70;;;3.20;;
58990;SDS011;44781;53.444;14.476;2023-07-30T09:48:34;7.00;;;3.40;;
58990;SDS011;44781;53.444;14.476;2023-07-30T09:51:02;4.70;;;2.90;;
58990;SDS011;44781;53.444;14.476;2023-07-30T09:53:33;5.30;;;3.20;;
58990;SDS011;44781;53.444;14.476;2023-07-30T09:56:04;4.70;;;3.00;;
58990;SDS011;44781;53.444;14.476;2023-07-30T09:58:33;5.90;;;3.50;;
58990;SDS011;44781;53.444;14.476;2023-07-30T10:01:03;5.50;;;3.50;;
58990;SDS011;44781;53.444;14.476;2023-07-30T10:03:32;4.70;;;3.40;;
58990;SDS011;44781;53.444;14.476;2023-07-30T10:06:02;5.20;;;3.40;;
58990;SDS011;44781;53.444;14.476;2023-07-30T10:08:32;4.10;;;3.20;;
58990;SDS011;44781;53.444;14.476;2023-07-30T10:13:32;4.60;;;3.00;;
58990;SDS011;44781;53.444;14.476;2023-07-30T10:16:02;4.40;;;2.90;;
58990;SDS011;44781;53.444;14.476;2023-07-30T10:18:34;4.70;;;2.80;;
58990;SDS011;44781;53.444;14.476;2023-07-30T10:21:24;5.50;;;3.10;;
58990;SDS011;44781;53.444;14.476;2023-07-30T10:24:00;5.00;;;3.20;;
58990;SDS011;44781;53.444;14.476;2023-07-30T10:26:30;3.20;;;2.50;;
58990;SDS011;44781;53.444;14.476;2023-07-30T10:29:17;5.10;;;2.90;;
58990;SDS011;44781;53.444;14.476;2023-07-30T10:31:54;5.00;;;3.00;;
58990;SDS011;44781;53.444;14.476;2023-07-30T10:34:44;5.30;;;3.10;;
58990;SDS011;44781;53.444;14.476;2023-07-30T10:37:22;4.00;;;2.50;;
58990;SDS011;44781;53.444;14.476;2023-07-30T10:39:55;4.40;;;3.00;;
58990;SDS011;44781;53.444;14.476;2023-07-30T10:42:23;4.30;;;2.40;;
58990;SDS011;44781;53.444;14.476;2023-07-30T10:45:02;3.30;;;2.20;;
58990;SDS011;44781;53.444;14.476;2023-07-30T10:47:36;2.90;;;2.00;;
58990;SDS011;44781;53.444;14.476;2023-07-30T10:50:06;2.90;;;1.80;;
58990;SDS011;44781;53.444;14.476;2023-07-30T10:52:35;4.40;;;1.90;;
58990;SDS011;44781;53.444;14.476;2023-07-30T10:55:06;3.30;;;1.90;;
58990;SDS011;44781;53.444;14.476;2023-07-30T10:57:37;3.00;;;1.90;;
58990;SDS011;44781;53.444;14.476;2023-07-30T11:00:12;3.20;;;1.90;;
58990;SDS011;44781;53.444;14.476;2023-07-30T11:02:39;3.20;;;1.80;;
58990;SDS011;44781;53.444;14.476;2023-07-30T11:05:13;3.60;;;1.70;;
58990;SDS011;44781;53.444;14.476;2023-07-30T11:07:50;5.60;;;2.10;;
58990;SDS011;44781;53.444;14.476;2023-07-30T11:10:22;3.30;;;1.90;;
58990;SDS011;44781;53.444;14.476;2023-07-30T11:12:50;3.30;;;1.50;;
58990;SDS011;44781;53.444;14.476;2023-07-30T11:15:17;2.90;;;1.70;;
58990;SDS011;44781;53.444;14.476;2023-07-30T11:17:45;2.50;;;1.50;;
58990;SDS011;44781;53.444;14.476;2023-07-30T11:20:25;3.20;;;1.30;;
58990;SDS011;44781;53.444;14.476;2023-07-30T11:22:53;3.50;;;1.90;;
58990;SDS011;44781;53.444;14.476;2023-07-30T11:25:21;2.70;;;1.60;;
58990;SDS011;44781;53.444;14.476;2023-07-30T11:27:48;2.70;;;1.60;;
58990;SDS011;44781;53.444;14.476;2023-07-30T11:30:18;3.90;;;1.50;;
58990;SDS011;44781;53.444;14.476;2023-07-30T11:32:45;3.70;;;1.60;;
58990;SDS011;44781;53.444;14.476;2023-07-30T11:35:13;4.30;;;1.60;;
58990;SDS011;44781;53.444;14.476;2023-07-30T11:37:43;3.50;;;1.40;;
58990;SDS011;44781;53.444;14.476;2023-07-30T11:40:10;3.70;;;1.70;;
58990;SDS011;44781;53.444;14.476;2023-07-30T11:42:40;3.10;;;1.60;;
58990;SDS011;44781;53.444;14.476;2023-07-30T11:48:08;4.90;;;1.90;;
58990;SDS011;44781;53.444;14.476;2023-07-30T11:53:18;3.90;;;2.40;;
58990;SDS011;44781;53.444;14.476;2023-07-30T11:55:48;5.80;;;2.90;;
58990;SDS011;44781;53.444;14.476;2023-07-30T11:58:17;4.90;;;2.40;;
58990;SDS011;44781;53.444;14.476;2023-07-30T12:00:44;5.50;;;2.60;;
58990;SDS011;44781;53.444;14.476;2023-07-30T12:03:14;4.70;;;2.50;;
58990;SDS011;44781;53.444;14.476;2023-07-30T12:05:41;4.70;;;1.90;;
58990;SDS011;44781;53.444;14.476;2023-07-30T12:08:25;4.70;;;2.10;;
58990;SDS011;44781;53.444;14.476;2023-07-30T12:10:56;3.00;;;1.50;;
58990;SDS011;44781;53.444;14.476;2023-07-30T12:13:44;3.30;;;1.80;;
58990;SDS011;44781;53.444;14.476;2023-07-30T12:16:13;3.80;;;1.90;;
58990;SDS011;44781;53.444;14.476;2023-07-30T12:18:40;3.70;;;1.70;;
58990;SDS011;44781;53.444;14.476;2023-07-30T12:21:07;3.60;;;1.90;;
58990;SDS011;44781;53.444;14.476;2023-07-30T12:23:43;3.10;;;1.70;;
58990;SDS011;44781;53.444;14.476;2023-07-30T12:26:10;4.40;;;1.50;;
58990;SDS011;44781;53.444;14.476;2023-07-30T12:28:37;4.40;;;1.80;;
58990;SDS011;44781;53.444;14.476;2023-07-30T12:31:10;4.00;;;1.70;;
58990;SDS011;44781;53.444;14.476;2023-07-30T12:33:38;3.00;;;1.50;;
58990;SDS011;44781;53.444;14.476;2023-07-30T12:36:04;4.20;;;1.60;;
58990;SDS011;44781;53.444;14.476;2023-07-30T12:38:32;3.70;;;1.50;;
58990;SDS011;44781;53.444;14.476;2023-07-30T12:41:00;3.00;;;1.50;;
58990;SDS011;44781;53.444;14.476;2023-07-30T12:43:29;3.50;;;1.60;;
58990;SDS011;44781;53.444;14.476;2023-07-30T12:45:56;3.20;;;1.60;;
58990;SDS011;44781;53.444;14.476;2023-07-30T12:48:23;3.90;;;1.60;;
58990;SDS011;44781;53.444;14.476;2023-07-30T12:50:50;4.00;;;1.50;;
58990;SDS011;44781;53.444;14.476;2023-07-30T12:53:19;3.00;;;1.40;;
58990;SDS011;44781;53.444;14.476;2023-07-30T12:55:47;3.70;;;1.50;;
58990;SDS011;44781;53.444;14.476;2023-07-30T12:58:14;2.40;;;1.30;;
58990;SDS011;44781;53.444;14.476;2023-07-30T13:01:04;3.20;;;1.60;;
58990;SDS011;44781;53.444;14.476;2023-07-30T13:03:34;3.50;;;1.70;;
58990;SDS011;44781;53.444;14.476;2023-07-30T13:06:17;3.60;;;1.70;;
58990;SDS011;44781;53.444;14.476;2023-07-30T13:08:44;3.40;;;1.30;;
58990;SDS011;44781;53.444;14.476;2023-07-30T13:11:11;3.00;;;1.40;;
58990;SDS011;44781;53.444;14.476;2023-07-30T13:13:40;3.30;;;1.40;;
58990;SDS011;44781;53.444;14.476;2023-07-30T13:16:10;2.40;;;1.40;;
58990;SDS011;44781;53.444;14.476;2023-07-30T13:18:37;2.90;;;1.20;;
58990;SDS011;44781;53.444;14.476;2023-07-30T13:21:11;2.50;;;1.30;;
58990;SDS011;44781;53.444;14.476;2023-07-30T13:23:38;4.30;;;1.40;;
58990;SDS011;44781;53.444;14.476;2023-07-30T13:26:06;4.30;;;1.60;;
58990;SDS011;44781;53.444;14.476;2023-07-30T13:28:33;2.60;;;1.20;;
58990;SDS011;44781;53.444;14.476;2023-07-30T13:31:04;3.50;;;1.30;;
58990;SDS011;44781;53.444;14.476;2023-07-30T13:33:32;3.00;;;1.60;;
58990;SDS011;44781;53.444;14.476;2023-07-30T13:35:59;9.30;;;3.50;;
58990;SDS011;44781;53.444;14.476;2023-07-30T13:38:35;3.40;;;1.60;;
58990;SDS011;44781;53.444;14.476;2023-07-30T13:41:08;2.60;;;1.20;;
58990;SDS011;44781;53.444;14.476;2023-07-30T13:43:42;2.90;;;1.50;;
58990;SDS011;44781;53.444;14.476;2023-07-30T13:46:09;2.90;;;1.30;;
58990;SDS011;44781;53.444;14.476;2023-07-30T13:48:37;7.10;;;2.90;;
58990;SDS011;44781;53.444;14.476;2023-07-30T13:51:08;3.50;;;1.70;;
58990;SDS011;44781;53.444;14.476;2023-07-30T13:53:39;2.30;;;1.30;;
58990;SDS011;44781;53.444;14.476;2023-07-30T13:56:10;3.50;;;1.20;;
58990;SDS011;44781;53.444;14.476;2023-07-30T13:58:40;2.70;;;1.20;;
58990;SDS011;44781;53.444;14.476;2023-07-30T14:01:07;4.60;;;1.70;;
58990;SDS011;44781;53.444;14.476;2023-07-30T14:03:48;4.90;;;2.20;;
58990;SDS011;44781;53.444;14.476;2023-07-30T14:06:34;4.10;;;1.60;;
58990;SDS011;44781;53.444;14.476;2023-07-30T14:09:05;3.80;;;1.40;;
58990;SDS011;44781;53.444;14.476;2023-07-30T14:11:32;3.70;;;2.00;;
58990;SDS011;44781;53.444;14.476;2023-07-30T14:14:02;5.10;;;1.80;;
58990;SDS011;44781;53.444;14.476;2023-07-30T14:16:32;2.90;;;1.50;;
58990;SDS011;44781;53.444;14.476;2023-07-30T14:19:00;4.30;;;1.70;;
58990;SDS011;44781;53.444;14.476;2023-07-30T14:21:33;5.30;;;1.90;;
58990;SDS011;44781;53.444;14.476;2023-07-30T14:24:02;3.60;;;1.50;;
58990;SDS011;44781;53.444;14.476;2023-07-30T14:26:29;2.90;;;1.30;;
58990;SDS011;44781;53.444;14.476;2023-07-30T14:29:04;2.20;;;1.30;;
58990;SDS011;44781;53.444;14.476;2023-07-30T14:31:38;4.40;;;1.50;;
58990;SDS011;44781;53.444;14.476;2023-07-30T14:34:09;3.80;;;1.70;;
58990;SDS011;44781;53.444;14.476;2023-07-30T14:36:39;3.30;;;1.40;;
58990;SDS011;44781;53.444;14.476;2023-07-30T14:39:08;3.30;;;1.40;;
58990;SDS011;44781;53.444;14.476;2023-07-30T14:41:38;4.60;;;1.40;;
58990;SDS011;44781;53.444;14.476;2023-07-30T14:44:05;3.70;;;1.50;;
58990;SDS011;44781;53.444;14.476;2023-07-30T14:46:34;3.10;;;1.40;;
58990;SDS011;44781;53.444;14.476;2023-07-30T14:49:03;4.20;;;1.60;;
58990;SDS011;44781;53.444;14.476;2023-07-30T14:51:30;2.60;;;1.20;;
58990;SDS011;44781;53.444;14.476;2023-07-30T14:54:04;3.50;;;1.50;;